X  ZavřítMETAR data      LKPD Pardubice Airport

Teplota

11°C Teplota

6°C Rosný bod

72% Vlhkost



Vítr

 8 KM/H

 5 MPH

 2 M/S

 4 KTS



90°
Východní směr
Současné podmínky

Jasno Jasno
Tlak vzduchu 1014.92 (hPa) - 29.97 (in)
Dohlednost 6.2 (mi) - 10 (km)
Letiště
Kód letiště LKPD

Lokace Pardubice Airport 80 (km)

Metar:
LKPD 281000Z 09004KT CAVOK 11/06 Q1015 NOSIG RMK BLU BLU

Čas: 28-10-2020 11:00